Time;durP1;ratioP1;P1;durP2;ratioP2;P2;SDS_P1;SDS_P2;PMS_P1;PMS_P2;Temp;Humidity;BMP_temperature;BMP_pressure;BME280_temperature;BME280_humidity;BME280_pressure;Samples;Min_cycle;Max_cycle;Signal;HPM_P1;HPM_P2
2023/08/26 00:02:03;;;;;;;3.80;3.50;;;28.70;62.60;;;;;;5033442;28;20290;-72
2023/08/26 00:04:29;;;;;;;2.87;2.67;;;28.70;62.60;;;;;;5033689;28;20176;-71
2023/08/26 00:06:55;;;;;;;3.30;3.00;;;28.70;62.50;;;;;;5033836;28;20564;-72
2023/08/26 00:09:20;;;;;;;2.90;2.70;;;28.70;62.50;;;;;;5033674;28;20543;-71
2023/08/26 00:11:46;;;;;;;3.20;2.90;;;28.70;62.50;;;;;;5033366;28;20192;-71
2023/08/26 00:14:12;;;;;;;3.03;2.80;;;28.70;62.50;;;;;;5033567;28;20548;-70
2023/08/26 00:16:37;;;;;;;2.80;2.60;;;28.70;62.50;;;;;;5033479;28;20699;-70
2023/08/26 00:19:03;;;;;;;3.20;2.87;;;28.70;62.50;;;;;;5033784;28;20257;-71
2023/08/26 00:21:29;;;;;;;2.83;2.63;;;28.70;62.50;;;;;;5033104;28;20242;-70
2023/08/26 00:23:55;;;;;;;3.30;3.00;;;28.70;62.50;;;;;;5033292;28;20413;-71
2023/08/26 00:26:21;;;;;;;3.10;2.80;;;28.60;62.40;;;;;;5033242;28;20241;-71
2023/08/26 00:28:47;;;;;;;3.60;3.30;;;28.70;62.60;;;;;;5033214;28;20258;-71
2023/08/26 00:31:13;;;;;;;2.67;2.47;;;28.60;62.40;;;;;;5033142;28;20525;-71
2023/08/26 00:33:38;;;;;;;2.70;2.50;;;28.70;62.50;;;;;;5033127;28;20254;-72
2023/08/26 00:36:04;;;;;;;3.90;2.90;;;28.70;62.60;;;;;;5033220;28;20481;-72
2023/08/26 00:38:30;;;;;;;3.17;2.97;;;28.60;62.40;;;;;;5033058;28;20171;-71
2023/08/26 00:40:56;;;;;;;2.97;2.77;;;28.70;62.60;;;;;;5032773;28;20527;-71
2023/08/26 00:43:21;;;;;;;3.17;2.90;;;28.70;62.60;;;;;;5033209;28;20186;-71
2023/08/26 00:45:50;;;;;;;3.10;2.90;;;28.60;62.40;;;;;;5032946;28;20407;-72
2023/08/26 00:48:16;;;;;;;3.33;2.77;;;28.60;62.40;;;;;;5033002;28;20175;-72
2023/08/26 00:50:47;;;;;;;2.80;2.60;;;28.60;62.40;;;;;;5032923;28;20426;-73
2023/08/26 00:53:14;;;;;;;2.90;2.53;;;28.60;62.40;;;;;;5015025;28;20262;-72
2023/08/26 00:55:41;;;;;;;2.80;2.60;;;28.60;62.50;;;;;;5032874;28;20409;-73
2023/08/26 00:58:06;;;;;;;2.90;2.70;;;28.60;62.50;;;;;;5032629;28;20414;-73
2023/08/26 01:00:36;;;;;;;3.00;2.80;;;28.60;62.40;;;;;;5032609;28;20434;-73
2023/08/26 01:03:03;;;;;;;2.80;2.50;;;28.60;62.40;;;;;;5032704;28;20219;-73
2023/08/26 01:05:29;;;;;;;3.10;2.90;;;28.60;62.40;;;;;;5032763;28;20411;-72
2023/08/26 01:07:55;;;;;;;3.30;3.10;;;28.60;62.50;;;;;;5031710;28;20413;-71
2023/08/26 01:10:30;;;;;;;3.20;3.00;;;28.60;62.50;;;;;;5032811;28;20517;-72
2023/08/26 01:13:02;;;;;;;3.37;2.97;;;28.60;62.40;;;;;;5032709;28;20390;-73
2023/08/26 01:15:29;;;;;;;3.37;3.07;;;28.60;62.40;;;;;;5032556;28;20418;-72
2023/08/26 01:17:56;;;;;;;2.70;2.50;;;28.60;62.50;;;;;;5032347;28;20454;-72
2023/08/26 01:20:24;;;;;;;2.90;2.70;;;28.60;63.30;;;;;;5032311;28;20493;-73
2023/08/26 01:22:53;;;;;;;2.50;2.30;;;28.60;62.50;;;;;;5032238;28;20462;-73
2023/08/26 01:25:18;;;;;;;3.57;3.27;;;28.60;62.40;;;;;;5032424;28;20771;-72
2023/08/26 01:27:44;;;;;;;2.63;2.43;;;28.60;62.40;;;;;;5032388;28;20414;-72
2023/08/26 01:30:12;;;;;;;3.00;2.80;;;28.60;62.40;;;;;;5032312;28;20168;-72
2023/08/26 01:33:13;;;;;;;3.23;2.60;;;28.60;62.40;;;;;;5032443;28;20277;-73
2023/08/26 01:35:40;;;;;;;3.03;2.63;;;28.60;62.50;;;;;;5032217;28;20437;-73
2023/08/26 01:38:08;;;;;;;2.63;2.43;;;28.60;62.50;;;;;;5032453;28;20753;-72
2023/08/26 01:40:34;;;;;;;2.67;2.47;;;28.60;62.50;;;;;;5032198;28;20513;-72
2023/08/26 01:43:02;;;;;;;2.67;2.43;;;28.60;62.50;;;;;;5032058;28;20455;-72
2023/08/26 01:45:28;;;;;;;3.63;2.70;;;28.60;62.50;;;;;;5032069;28;20398;-72
2023/08/26 01:47:54;;;;;;;2.80;2.60;;;28.60;62.50;;;;;;5032162;28;20819;-72
2023/08/26 01:50:19;;;;;;;3.37;3.07;;;28.60;62.50;;;;;;5031964;28;20246;-72
2023/08/26 01:52:45;;;;;;;3.27;2.40;;;28.60;62.50;;;;;;5032393;28;20204;-72
2023/08/26 01:55:11;;;;;;;2.67;2.47;;;28.60;62.50;;;;;;5032079;28;20266;-72
2023/08/26 01:57:36;;;;;;;2.83;2.53;;;28.60;62.50;;;;;;5031960;28;20176;-71
2023/08/26 02:00:02;;;;;;;2.80;2.60;;;28.60;62.50;;;;;;5032175;28;20183;-70
2023/08/26 02:02:28;;;;;;;3.20;2.83;;;28.60;62.50;;;;;;5014417;28;20257;-72
2023/08/26 02:04:54;;;;;;;2.70;2.50;;;28.60;62.50;;;;;;5031911;28;20410;-72
2023/08/26 02:07:20;;;;;;;2.43;2.23;;;28.60;62.50;;;;;;5032050;28;20173;-72
2023/08/26 02:09:45;;;;;;;2.60;2.40;;;28.60;62.50;;;;;;5031990;28;20221;-71
2023/08/26 02:12:11;;;;;;;3.03;2.73;;;28.60;62.50;;;;;;5031782;28;20196;-71
2023/08/26 02:14:36;;;;;;;2.73;2.53;;;28.60;62.50;;;;;;5031930;28;20214;-72
2023/08/26 02:17:02;;;;;;;2.90;2.70;;;28.60;62.50;;;;;;5014133;28;20628;-72
2023/08/26 02:19:27;;;;;;;2.80;2.60;;;28.60;62.50;;;;;;5033162;28;20171;-72
2023/08/26 02:21:53;;;;;;;2.23;2.03;;;28.60;62.50;;;;;;5035453;28;20320;-72
2023/08/26 02:24:18;;;;;;;2.70;2.50;;;28.60;62.50;;;;;;5035954;28;20168;-71
2023/08/26 02:26:44;;;;;;;2.50;2.30;;;28.60;62.50;;;;;;5035519;28;20179;-72
2023/08/26 02:29:10;;;;;;;3.03;2.60;;;28.60;62.50;;;;;;5035482;28;20650;-72
2023/08/26 02:31:35;;;;;;;2.30;2.10;;;28.60;62.50;;;;;;5035317;28;20198;-72
2023/08/26 02:34:04;;;;;;;2.67;2.47;;;28.60;62.50;;;;;;5017669;28;20270;-72
2023/08/26 02:36:30;;;;;;;3.17;2.87;;;28.60;62.60;;;;;;5017339;28;20457;-71
2023/08/26 02:38:55;;;;;;;2.53;2.33;;;28.60;62.50;;;;;;5035285;28;20437;-71
2023/08/26 02:41:21;;;;;;;2.67;2.47;;;28.60;62.60;;;;;;5035015;28;20204;-71
2023/08/26 02:43:46;;;;;;;2.70;2.50;;;28.60;62.50;;;;;;5035142;28;20164;-71
2023/08/26 02:46:12;;;;;;;2.70;2.50;;;28.60;62.50;;;;;;5035026;28;20168;-70
2023/08/26 02:48:37;;;;;;;2.90;2.70;;;28.60;62.50;;;;;;5035080;28;20222;-72
2023/08/26 02:51:03;;;;;;;2.93;2.63;;;28.60;62.50;;;;;;5034789;28;20702;-72
2023/08/26 02:53:30;;;;;;;2.83;2.57;;;28.60;62.50;;;;;;5035007;28;20168;-72
2023/08/26 02:55:56;;;;;;;2.30;2.10;;;28.60;62.50;;;;;;5034804;28;20171;-71
2023/08/26 02:58:22;;;;;;;2.23;2.03;;;28.60;62.50;;;;;;5034839;28;20519;-72
2023/08/26 03:00:48;;;;;;;2.57;2.37;;;28.60;62.50;;;;;;5034774;28;20466;-72
2023/08/26 03:03:14;;;;;;;3.10;2.90;;;28.60;62.50;;;;;;5034753;28;20954;-72
2023/08/26 03:05:40;;;;;;;3.10;2.90;;;28.60;62.50;;;;;;5034858;28;20167;-72
2023/08/26 03:08:06;;;;;;;2.30;2.10;;;28.60;62.50;;;;;;5034615;28;20493;-72
2023/08/26 03:10:32;;;;;;;2.63;2.43;;;28.60;62.50;;;;;;5034594;28;20679;-72
2023/08/26 03:12:58;;;;;;;2.60;2.40;;;28.60;62.50;;;;;;5034593;28;20657;-73
2023/08/26 03:15:27;;;;;;;2.50;2.30;;;28.60;62.50;;;;;;5034581;28;20760;-72
2023/08/26 03:17:53;;;;;;;2.90;2.70;;;28.60;62.50;;;;;;5034338;28;20431;-72
2023/08/26 03:20:19;;;;;;;2.60;2.40;;;28.60;62.50;;;;;;5034439;28;20407;-73
2023/08/26 03:22:45;;;;;;;2.77;2.57;;;28.60;62.50;;;;;;5034406;28;20676;-72
2023/08/26 03:25:11;;;;;;;3.40;3.10;;;28.60;62.50;;;;;;5034676;28;20583;-72
2023/08/26 03:27:37;;;;;;;3.30;2.97;;;28.60;62.50;;;;;;5034373;28;20502;-72
2023/08/26 03:30:03;;;;;;;2.73;2.53;;;28.60;62.50;;;;;;5016458;28;20214;-71
2023/08/26 03:32:28;;;;;;;2.80;2.60;;;28.60;62.50;;;;;;5033385;28;20195;-72
2023/08/26 03:34:54;;;;;;;2.37;2.17;;;28.60;62.50;;;;;;5016590;28;20410;-72
2023/08/26 03:37:20;;;;;;;2.40;2.20;;;28.60;62.50;;;;;;5034217;28;20183;-73
2023/08/26 03:39:45;;;;;;;2.43;2.23;;;28.60;62.50;;;;;;5034400;28;20256;-72
2023/08/26 03:42:11;;;;;;;2.60;2.40;;;28.60;62.50;;;;;;5033799;28;20666;-72
2023/08/26 03:44:36;;;;;;;2.70;2.50;;;28.60;62.50;;;;;;5034086;28;20164;-73
2023/08/26 03:47:02;;;;;;;2.70;2.47;;;28.60;62.50;;;;;;5016263;28;20180;-72
2023/08/26 03:49:28;;;;;;;2.60;2.40;;;28.60;62.50;;;;;;5016351;28;20176;-72
2023/08/26 03:51:54;;;;;;;2.70;2.50;;;28.60;62.50;;;;;;5033738;28;20491;-72
2023/08/26 03:54:19;;;;;;;2.50;2.23;;;28.60;62.50;;;;;;5033843;28;20233;-72
2023/08/26 03:56:45;;;;;;;3.33;2.73;;;28.60;62.50;;;;;;5033825;28;20540;-72
2023/08/26 03:59:10;;;;;;;2.50;2.30;;;28.60;62.50;;;;;;5034011;28;20186;-72
2023/08/26 04:01:36;;;;;;;2.00;1.90;;;28.60;62.50;;;;;;5015940;28;20203;-72
2023/08/26 04:04:02;;;;;;;2.80;2.60;;;28.60;62.50;;;;;;5033714;28;20164;-73
2023/08/26 04:06:27;;;;;;;3.03;2.70;;;28.60;62.50;;;;;;5015797;28;20172;-71
2023/08/26 04:08:53;;;;;;;2.30;2.10;;;28.60;62.50;;;;;;5015820;28;20186;-72
2023/08/26 04:11:19;;;;;;;2.53;2.33;;;28.60;62.50;;;;;;5033508;28;20188;-72
2023/08/26 04:13:47;;;;;;;2.47;2.27;;;28.60;62.50;;;;;;5015713;28;20180;-72
2023/08/26 04:16:15;;;;;;;2.50;2.30;;;28.60;62.50;;;;;;5033405;28;20210;-72
2023/08/26 04:18:42;;;;;;;2.67;2.47;;;28.60;62.60;;;;;;5033664;28;20899;-73
2023/08/26 04:21:09;;;;;;;2.37;2.17;;;28.60;62.50;;;;;;5033272;28;21010;-72
2023/08/26 04:23:34;;;;;;;2.33;2.13;;;28.60;62.50;;;;;;5033333;28;20433;-72
2023/08/26 04:26:00;;;;;;;2.87;2.67;;;28.60;62.50;;;;;;5033299;28;20434;-72
2023/08/26 04:28:28;;;;;;;2.33;2.13;;;28.50;62.40;;;;;;5033820;28;20218;-71
2023/08/26 04:30:55;;;;;;;2.80;2.60;;;28.60;62.50;;;;;;5033137;28;20195;-72
2023/08/26 04:33:20;;;;;;;2.23;2.03;;;28.60;62.50;;;;;;5033086;28;20423;-71
2023/08/26 04:35:46;;;;;;;2.73;2.53;;;28.60;62.50;;;;;;5033086;28;20414;-72
2023/08/26 04:38:13;;;;;;;3.50;2.47;;;28.50;62.50;;;;;;5033258;28;20175;-71
2023/08/26 04:40:38;;;;;;;2.43;2.23;;;28.60;62.50;;;;;;5033247;28;20218;-71
2023/08/26 04:43:04;;;;;;;2.30;2.10;;;28.60;62.60;;;;;;5032750;28;20443;-72
2023/08/26 04:45:30;;;;;;;2.93;2.30;;;28.60;62.60;;;;;;5015291;28;20222;-72
2023/08/26 04:47:55;;;;;;;2.50;2.30;;;28.60;62.50;;;;;;5033324;28;20250;-72
2023/08/26 04:50:21;;;;;;;2.63;2.43;;;28.50;63.30;;;;;;5032814;28;20172;-72
2023/08/26 04:52:47;;;;;;;2.20;2.10;;;28.60;62.50;;;;;;5032674;28;20171;-72
2023/08/26 04:55:13;;;;;;;2.43;2.23;;;28.60;62.60;;;;;;5032588;28;20829;-72
2023/08/26 04:57:39;;;;;;;2.60;2.40;;;28.60;62.50;;;;;;5032856;28;20422;-72
2023/08/26 05:00:10;;;;;;;2.47;2.27;;;28.60;62.50;;;;;;5032889;28;20183;-72
2023/08/26 05:02:35;;;;;;;2.73;2.43;;;28.50;62.50;;;;;;5032652;28;20262;-72
2023/08/26 05:05:01;;;;;;;2.27;2.07;;;28.50;62.50;;;;;;5032552;28;20509;-71
2023/08/26 05:07:27;;;;;;;2.50;2.30;;;28.50;62.50;;;;;;5032609;28;20179;-71
2023/08/26 05:09:53;;;;;;;3.00;2.70;;;28.50;62.50;;;;;;5032700;28;20176;-73
2023/08/26 05:12:18;;;;;;;2.40;2.20;;;28.50;62.40;;;;;;5032540;28;20616;-72
2023/08/26 05:14:44;;;;;;;2.80;2.60;;;28.60;62.60;;;;;;5015086;28;20453;-72
2023/08/26 05:17:10;;;;;;;2.60;2.40;;;28.50;62.50;;;;;;5032464;28;20179;-72
2023/08/26 05:19:35;;;;;;;2.47;2.23;;;28.50;62.50;;;;;;5032634;28;20628;-72
2023/08/26 05:22:02;;;;;;;2.10;1.90;;;28.50;62.50;;;;;;5032280;28;20298;-72
2023/08/26 05:24:29;;;;;;;3.13;2.33;;;28.50;62.40;;;;;;5032632;28;20541;-71
2023/08/26 05:26:55;;;;;;;2.10;2.00;;;28.50;62.50;;;;;;5032224;28;20399;-72
2023/08/26 05:29:20;;;;;;;2.70;2.20;;;28.50;62.50;;;;;;5032247;28;20416;-72
2023/08/26 05:31:46;;;;;;;2.17;1.97;;;28.50;62.50;;;;;;5032205;28;20192;-72
2023/08/26 05:34:11;;;;;;;2.37;2.17;;;28.50;62.50;;;;;;5014663;28;20648;-71
2023/08/26 05:36:37;;;;;;;2.37;2.17;;;28.50;62.40;;;;;;5032286;28;20183;-72
2023/08/26 05:39:03;;;;;;;2.60;2.40;;;28.50;62.50;;;;;;5032222;28;20180;-71
2023/08/26 05:41:28;;;;;;;2.27;2.07;;;28.50;62.50;;;;;;5032059;28;20565;-72
2023/08/26 05:43:54;;;;;;;2.13;2.03;;;28.50;62.50;;;;;;5032403;28;20176;-72
2023/08/26 05:46:20;;;;;;;1.93;1.83;;;28.50;62.50;;;;;;5032193;28;20255;-72
2023/08/26 05:48:45;;;;;;;1.97;1.77;;;28.50;62.50;;;;;;5032143;28;20199;-72
2023/08/26 05:51:11;;;;;;;2.40;2.20;;;28.50;62.50;;;;;;5032067;28;20205;-72
2023/08/26 05:53:36;;;;;;;2.60;2.40;;;28.50;62.50;;;;;;5031937;28;20172;-72
2023/08/26 05:56:02;;;;;;;2.23;2.03;;;28.50;62.50;;;;;;5035937;28;20266;-72
2023/08/26 05:58:28;;;;;;;2.20;2.00;;;28.50;62.50;;;;;;5036039;28;20168;-72
2023/08/26 06:00:53;;;;;;;2.43;2.23;;;28.60;62.50;;;;;;5035821;28;20191;-72
2023/08/26 06:03:19;;;;;;;2.77;2.20;;;28.50;62.50;;;;;;5035825;28;20286;-72
2023/08/26 06:05:44;;;;;;;2.03;1.83;;;28.50;62.50;;;;;;5036075;28;20160;-72
2023/08/26 06:08:10;;;;;;;2.20;2.00;;;28.50;62.50;;;;;;5035813;28;20164;-72
2023/08/26 06:10:36;;;;;;;2.67;2.47;;;28.50;62.90;;;;;;5035750;28;20741;-71
2023/08/26 06:13:01;;;;;;;2.50;2.30;;;28.50;62.50;;;;;;5035755;28;20224;-73
2023/08/26 06:15:27;;;;;;;2.50;2.23;;;28.50;62.50;;;;;;5035799;28;20501;-72
2023/08/26 06:17:53;;;;;;;1.93;1.83;;;28.50;62.40;;;;;;5017882;28;20266;-72
2023/08/26 06:20:18;;;;;;;2.13;1.90;;;28.50;62.40;;;;;;5035590;28;20254;-73
2023/08/26 06:22:45;;;;;;;1.83;1.63;;;28.50;62.50;;;;;;5035348;28;20306;-72
2023/08/26 06:25:12;;;;;;;2.50;2.30;;;28.50;62.40;;;;;;5035212;28;20238;-72
2023/08/26 06:27:37;;;;;;;2.37;2.17;;;28.50;62.40;;;;;;5035628;28;20911;-72
2023/08/26 06:30:03;;;;;;;2.20;2.00;;;28.50;62.40;;;;;;5035316;28;20507;-72
2023/08/26 06:32:30;;;;;;;2.53;2.30;;;28.50;62.50;;;;;;5035239;28;20301;-72
2023/08/26 06:34:56;;;;;;;2.20;2.00;;;28.60;62.50;;;;;;5035459;28;20407;-72
2023/08/26 06:37:21;;;;;;;2.40;2.20;;;28.50;62.40;;;;;;5035386;28;20468;-72
2023/08/26 06:39:47;;;;;;;2.10;1.90;;;28.50;62.40;;;;;;5017588;28;20418;-71
2023/08/26 06:42:14;;;;;;;2.20;2.00;;;28.50;62.40;;;;;;5035158;28;20291;-72
2023/08/26 06:44:40;;;;;;;2.27;2.07;;;28.50;62.50;;;;;;5040687;28;20509;-73
2023/08/26 06:47:09;;;;;;;2.20;2.00;;;28.60;62.50;;;;;;5042789;28;20419;-72
2023/08/26 06:49:35;;;;;;;2.50;2.30;;;28.50;62.40;;;;;;5037694;28;20172;-71
2023/08/26 06:52:01;;;;;;;2.90;1.93;;;28.60;62.60;;;;;;5034448;28;20437;-73
2023/08/26 06:54:27;;;;;;;1.87;1.77;;;28.60;62.50;;;;;;5032793;28;20410;-72
2023/08/26 06:56:52;;;;;;;2.10;1.90;;;28.60;62.50;;;;;;5034715;28;20211;-72
2023/08/26 06:59:18;;;;;;;2.20;1.80;;;28.60;62.50;;;;;;5035525;28;20176;-72
2023/08/26 07:01:44;;;;;;;2.13;1.93;;;28.60;62.50;;;;;;5035157;28;20680;-72
2023/08/26 07:04:11;;;;;;;3.30;3.00;;;28.60;62.50;;;;;;5017551;28;20772;-72
2023/08/26 07:06:36;;;;;;;2.40;2.20;;;28.60;62.50;;;;;;5033665;28;20199;-72
2023/08/26 07:09:05;;;;;;;1.90;1.80;;;28.60;62.50;;;;;;5035028;28;20439;-72
2023/08/26 07:11:32;;;;;;;2.10;1.90;;;28.60;62.40;;;;;;5034536;28;20250;-73
2023/08/26 07:13:58;;;;;;;2.13;1.93;;;28.60;62.50;;;;;;5034421;28;20437;-72
2023/08/26 07:16:27;;;;;;;2.17;1.97;;;28.60;62.50;;;;;;5034366;28;20459;-72
2023/08/26 07:18:53;;;;;;;1.90;1.80;;;28.60;62.50;;;;;;5034426;28;20907;-72
2023/08/26 07:21:19;;;;;;;2.23;2.07;;;28.60;62.50;;;;;;5034216;28;20536;-72
2023/08/26 07:23:44;;;;;;;2.97;2.30;;;28.60;62.50;;;;;;5034754;28;20524;-71
2023/08/26 07:26:10;;;;;;;2.43;2.03;;;28.60;62.50;;;;;;5034493;28;20664;-71
2023/08/26 07:28:36;;;;;;;2.20;2.00;;;28.60;62.50;;;;;;5016721;28;20176;-71
2023/08/26 07:31:06;;;;;;;2.70;2.07;;;28.60;62.50;;;;;;5034134;28;20188;-72
2023/08/26 07:33:32;;;;;;;2.30;2.10;;;28.60;62.50;;;;;;5016473;28;20241;-72
2023/08/26 07:36:09;;;;;;;2.40;2.20;;;28.60;62.50;;;;;;5034019;28;20414;-72
2023/08/26 07:38:34;;;;;;;3.03;2.73;;;28.60;62.50;;;;;;5033873;28;20432;-71
2023/08/26 07:41:00;;;;;;;2.23;2.00;;;28.60;62.50;;;;;;5033953;28;20430;-72
2023/08/26 07:43:26;;;;;;;2.50;2.13;;;28.60;62.50;;;;;;5033385;28;20239;-72
2023/08/26 07:45:51;;;;;;;2.10;2.00;;;28.60;62.40;;;;;;5033645;28;20168;-72
2023/08/26 07:48:17;;;;;;;2.50;2.10;;;28.60;62.50;;;;;;5033908;28;20172;-73
2023/08/26 07:50:43;;;;;;;2.10;1.90;;;28.60;62.50;;;;;;5032188;28;20235;-71
2023/08/26 07:53:09;;;;;;;2.50;2.23;;;28.60;62.40;;;;;;5033603;28;20171;-71
2023/08/26 07:55:34;;;;;;;2.83;2.63;;;28.60;62.40;;;;;;5033786;28;20714;-72
2023/08/26 07:58:00;;;;;;;2.27;2.07;;;28.60;62.40;;;;;;5033504;28;20205;-71
2023/08/26 08:00:26;;;;;;;2.27;2.10;;;28.60;62.40;;;;;;5033587;28;20172;-72
2023/08/26 08:02:52;;;;;;;2.10;1.90;;;28.60;62.40;;;;;;5033480;28;20200;-72
2023/08/26 08:05:17;;;;;;;2.40;2.20;;;28.60;62.40;;;;;;5033666;28;20167;-71
2023/08/26 08:07:43;;;;;;;2.10;1.90;;;28.60;62.40;;;;;;5033649;28;20632;-72
2023/08/26 08:10:09;;;;;;;1.80;1.70;;;28.60;62.40;;;;;;5033371;28;20656;-71
2023/08/26 08:12:35;;;;;;;2.00;1.80;;;28.60;62.40;;;;;;5033350;28;20202;-71
2023/08/26 08:15:03;;;;;;;2.30;2.10;;;28.60;62.40;;;;;;5032331;28;20911;-73
2023/08/26 08:17:28;;;;;;;2.60;2.30;;;28.60;62.40;;;;;;5013397;28;20426;-73
2023/08/26 08:19:54;;;;;;;2.10;2.00;;;28.60;62.40;;;;;;5014107;28;20426;-72
2023/08/26 08:22:37;;;;;;;2.10;1.90;;;28.60;62.40;;;;;;5031903;28;20207;-72
2023/08/26 08:25:03;;;;;;;2.47;2.27;;;28.60;62.40;;;;;;5031512;28;20175;-72
2023/08/26 08:27:30;;;;;;;2.70;2.50;;;28.60;62.40;;;;;;5033262;28;20438;-73
2023/08/26 08:29:59;;;;;;;2.30;2.10;;;28.60;62.40;;;;;;5014105;28;20410;-71
2023/08/26 08:32:25;;;;;;;2.47;2.27;;;28.60;62.40;;;;;;5092655;22;20859;-72
2023/08/26 08:34:51;;;;;;;2.10;1.90;;;28.60;62.40;;;;;;5031955;28;20419;-72
2023/08/26 08:37:17;;;;;;;3.30;2.20;;;28.60;62.40;;;;;;5033134;28;20856;-71
2023/08/26 08:39:43;;;;;;;2.43;2.23;;;28.60;62.40;;;;;;5031756;28;20175;-72
2023/08/26 08:42:15;;;;;;;2.00;1.80;;;28.60;62.40;;;;;;5033221;28;20554;-71
2023/08/26 08:44:42;;;;;;;2.13;1.93;;;28.60;62.40;;;;;;5032835;28;20163;-72
2023/08/26 08:47:09;;;;;;;2.00;1.80;;;28.60;62.40;;;;;;5031645;28;20411;-71
2023/08/26 08:49:36;;;;;;;3.50;2.53;;;28.60;62.40;;;;;;5032735;28;20501;-72
2023/08/26 08:52:05;;;;;;;2.30;2.10;;;28.60;62.40;;;;;;5031338;28;21020;-71
2023/08/26 08:54:32;;;;;;;2.40;2.20;;;28.60;62.40;;;;;;5032777;28;20907;-71
2023/08/26 08:56:58;;;;;;;2.53;2.20;;;28.60;62.40;;;;;;5032906;28;20501;-71
2023/08/26 08:59:29;;;;;;;2.83;2.60;;;28.60;62.40;;;;;;5032776;28;20443;-72
2023/08/26 09:01:57;;;;;;;2.20;2.00;;;28.60;62.40;;;;;;5032439;28;20449;-72
2023/08/26 09:04:23;;;;;;;2.27;2.07;;;28.60;62.40;;;;;;5032581;28;20544;-72
2023/08/26 09:06:49;;;;;;;2.20;2.00;;;28.60;62.40;;;;;;5032519;28;20784;-72
2023/08/26 09:09:20;;;;;;;2.20;2.00;;;28.60;62.40;;;;;;5032488;28;20406;-72
2023/08/26 09:11:50;;;;;;;2.67;2.47;;;28.60;63.20;;;;;;5031640;28;20707;-72
2023/08/26 09:14:16;;;;;;;2.50;2.30;;;28.60;62.30;;;;;;5032692;28;20452;-71
2023/08/26 09:16:43;;;;;;;2.97;2.50;;;28.60;62.30;;;;;;5032407;28;20410;-72
2023/08/26 09:19:13;;;;;;;3.23;2.60;;;28.60;62.20;;;;;;5032635;28;20230;-71
2023/08/26 09:21:43;;;;;;;2.77;2.57;;;28.60;62.20;;;;;;5030992;28;20925;-71
2023/08/26 09:24:17;;;;;;;4.33;2.90;;;28.60;62.20;;;;;;5032336;28;20415;-70
2023/08/26 09:26:43;;;;;;;3.47;2.70;;;28.60;62.00;;;;;;5032335;28;20490;-72
2023/08/26 09:29:20;;;;;;;2.77;2.40;;;28.60;62.00;;;;;;5031317;28;20489;-72
2023/08/26 09:31:49;;;;;;;3.40;2.60;;;28.60;61.90;;;;;;5031049;28;20819;-71
2023/08/26 09:34:32;;;;;;;3.87;3.10;;;28.60;61.90;;;;;;5032457;28;20785;-71
2023/08/26 09:36:59;;;;;;;3.37;2.43;;;28.60;61.80;;;;;;5032080;28;20395;-71
2023/08/26 09:39:25;;;;;;;3.20;2.80;;;28.60;61.80;;;;;;5032038;28;20426;-71
2023/08/26 09:41:54;;;;;;;2.90;2.20;;;28.60;61.70;;;;;;5031920;28;20548;-71
2023/08/26 09:44:21;;;;;;;3.30;2.77;;;28.60;61.70;;;;;;5031882;28;20417;-70
2023/08/26 09:46:47;;;;;;;3.60;3.30;;;28.60;61.60;;;;;;5031638;28;20745;-74
2023/08/26 09:49:17;;;;;;;3.20;2.90;;;28.60;61.50;;;;;;5032062;28;20403;-73
2023/08/26 09:51:50;;;;;;;5.43;3.20;;;28.60;61.50;;;;;;5032192;28;20430;-73
2023/08/26 09:54:17;;;;;;;3.80;3.40;;;28.60;61.40;;;;;;5030802;28;20476;-73
2023/08/26 09:56:45;;;;;;;3.07;2.77;;;28.60;61.40;;;;;;5032130;28;20438;-73
2023/08/26 09:59:12;;;;;;;3.30;3.00;;;28.60;61.30;;;;;;5032209;28;20985;-72
2023/08/26 10:01:39;;;;;;;3.13;2.83;;;28.60;61.30;;;;;;5031894;28;20454;-72
2023/08/26 10:04:05;;;;;;;3.50;2.80;;;28.60;61.30;;;;;;5032141;28;20421;-72
2023/08/26 10:06:33;;;;;;;2.80;2.60;;;28.60;61.30;;;;;;5032093;28;20907;-72
2023/08/26 10:09:28;;;;;;;3.80;2.90;;;28.60;61.30;;;;;;5031929;28;20699;-72
2023/08/26 10:11:55;;;;;;;3.20;2.90;;;28.60;61.20;;;;;;5008771;28;20805;-73
2023/08/26 10:14:24;;;;;;;3.27;2.97;;;28.60;61.20;;;;;;5032074;28;20410;-72
2023/08/26 10:16:52;;;;;;;3.83;3.37;;;28.60;61.20;;;;;;5031923;28;20452;-73
2023/08/26 10:19:19;;;;;;;5.03;3.10;;;28.60;61.10;;;;;;5031912;28;20935;-71
2023/08/26 10:21:45;;;;;;;3.60;3.17;;;28.60;61.10;;;;;;5030838;28;20454;-72
2023/08/26 10:24:10;;;;;;;3.53;3.23;;;28.60;61.10;;;;;;5032288;28;20449;-73
2023/08/26 10:26:37;;;;;;;3.23;2.70;;;28.60;60.90;;;;;;5032024;28;20414;-72
2023/08/26 10:29:03;;;;;;;4.40;3.13;;;28.60;60.90;;;;;;5031920;28;20668;-72
2023/08/26 10:31:40;;;;;;;5.27;3.50;;;28.70;60.90;;;;;;5031646;28;20486;-73
2023/08/26 10:34:08;;;;;;;6.00;3.10;;;28.60;60.70;;;;;;5031809;28;20406;-73
2023/08/26 10:36:45;;;;;;;3.83;2.97;;;28.60;60.70;;;;;;5031906;28;20404;-72
2023/08/26 10:39:21;;;;;;;3.23;2.93;;;28.60;60.80;;;;;;5031772;28;20401;-73
2023/08/26 10:42:16;;;;;;;2.90;2.60;;;28.60;60.90;;;;;;5033469;28;20465;-72
2023/08/26 10:44:55;;;;;;;4.20;3.10;;;28.60;60.90;;;;;;5035220;28;20456;-73
2023/08/26 10:47:44;;;;;;;3.23;2.70;;;28.60;61.00;;;;;;5035120;28;20395;-72
2023/08/26 10:50:21;;;;;;;6.10;3.30;;;28.60;61.00;;;;;;5035033;28;20398;-73
2023/08/26 10:52:53;;;;;;;3.63;3.33;;;28.60;61.00;;;;;;5034065;28;20413;-72
2023/08/26 10:55:20;;;;;;;3.30;2.93;;;28.60;61.00;;;;;;5034984;28;20402;-72
2023/08/26 10:58:12;;;;;;;3.30;2.80;;;28.60;60.90;;;;;;5035293;28;20411;-71
2023/08/26 11:00:40;;;;;;;4.70;3.10;;;28.60;60.90;;;;;;5034884;28;20798;-73
2023/08/26 11:03:08;;;;;;;5.40;2.97;;;28.60;60.90;;;;;;5034697;28;20970;-72
2023/08/26 11:05:36;;;;;;;3.73;3.43;;;28.60;60.80;;;;;;5035083;28;20484;-71
2023/08/26 11:08:03;;;;;;;6.80;2.93;;;28.60;60.90;;;;;;5034876;28;20438;-73
2023/08/26 11:10:31;;;;;;;2.50;2.30;;;28.60;60.90;;;;;;5034251;28;20410;-72
2023/08/26 11:12:57;;;;;;;3.70;3.07;;;28.60;60.90;;;;;;5034775;28;20429;-73
2023/08/26 11:15:23;;;;;;;5.17;2.97;;;28.60;60.80;;;;;;5034673;28;20459;-71
2023/08/26 11:17:49;;;;;;;3.60;2.70;;;28.60;60.90;;;;;;5034796;28;20418;-71
2023/08/26 11:20:18;;;;;;;3.23;2.80;;;28.60;61.00;;;;;;5033386;28;20411;-72
2023/08/26 11:22:45;;;;;;;3.17;2.40;;;28.60;61.10;;;;;;5034610;28;20854;-72
2023/08/26 11:25:15;;;;;;;3.10;2.80;;;28.60;61.10;;;;;;5034520;28;20422;-71
2023/08/26 11:27:40;;;;;;;3.77;2.80;;;28.70;61.30;;;;;;5034375;28;20403;-71
2023/08/26 11:30:10;;;;;;;2.40;2.20;;;28.70;61.30;;;;;;5034037;28;20426;-71
2023/08/26 11:32:40;;;;;;;2.50;2.30;;;28.60;61.20;;;;;;5032683;28;20215;-72
2023/08/26 11:35:09;;;;;;;2.87;2.67;;;28.70;61.30;;;;;;5032964;28;20965;-70
2023/08/26 11:37:42;;;;;;;2.80;2.60;;;28.70;61.40;;;;;;5034304;28;20505;-72
2023/08/26 11:40:08;;;;;;;3.03;2.73;;;28.70;61.30;;;;;;5033078;28;20415;-71
2023/08/26 11:42:34;;;;;;;2.73;2.53;;;28.70;61.30;;;;;;5033996;28;20461;-71
2023/08/26 11:45:00;;;;;;;2.90;2.70;;;28.70;61.40;;;;;;5034079;28;20419;-71
2023/08/26 11:47:26;;;;;;;2.60;2.40;;;28.70;61.30;;;;;;5033722;28;20199;-71
2023/08/26 11:49:55;;;;;;;2.67;2.10;;;28.70;61.30;;;;;;5033808;28;20180;-71
2023/08/26 11:52:23;;;;;;;2.90;2.70;;;28.70;61.60;;;;;;5033100;28;20450;-71
2023/08/26 11:54:52;;;;;;;2.97;2.50;;;28.70;61.30;;;;;;5033835;28;20413;-72
2023/08/26 11:57:22;;;;;;;2.63;2.43;;;28.70;61.20;;;;;;5034029;28;20871;-72
2023/08/26 11:59:48;;;;;;;2.27;2.10;;;28.70;61.10;;;;;;5032749;28;20970;-71
2023/08/26 12:02:20;;;;;;;3.33;3.03;;;28.70;61.20;;;;;;5033596;28;20465;-72
2023/08/26 12:04:46;;;;;;;3.20;2.90;;;28.70;61.10;;;;;;5033766;28;20156;-70
2023/08/26 12:07:11;;;;;;;3.00;2.80;;;28.70;61.20;;;;;;5033744;28;20420;-72
2023/08/26 12:09:37;;;;;;;2.73;2.53;;;28.70;61.20;;;;;;5033702;28;20698;-72
2023/08/26 12:12:05;;;;;;;3.67;2.63;;;28.70;61.20;;;;;;5033595;28;20199;-71
2023/08/26 12:14:31;;;;;;;2.73;2.53;;;28.70;61.20;;;;;;5033620;28;20171;-72
2023/08/26 12:17:06;;;;;;;2.60;2.40;;;28.70;61.20;;;;;;5033576;28;20442;-71
2023/08/26 12:19:31;;;;;;;4.53;2.73;;;28.70;61.20;;;;;;5033811;28;20414;-73
2023/08/26 12:22:01;;;;;;;2.87;2.67;;;28.70;62.00;;;;;;5032074;28;20511;-73
2023/08/26 12:24:26;;;;;;;3.13;2.90;;;28.70;61.20;;;;;;5033341;28;20168;-71
2023/08/26 12:26:54;;;;;;;3.23;2.93;;;28.70;61.20;;;;;;5033359;28;20767;-73
2023/08/26 12:29:20;;;;;;;2.80;2.57;;;28.70;61.20;;;;;;5033496;28;20261;-73
2023/08/26 12:31:49;;;;;;;3.80;2.80;;;28.70;61.20;;;;;;5033052;28;20477;-71
2023/08/26 12:34:14;;;;;;;3.27;3.00;;;28.70;61.20;;;;;;5033333;28;20198;-70
2023/08/26 12:36:40;;;;;;;2.90;2.67;;;28.70;61.20;;;;;;5033192;28;20410;-73
2023/08/26 12:39:06;;;;;;;3.67;2.83;;;28.70;61.20;;;;;;5033230;28;20269;-73
2023/08/26 12:41:31;;;;;;;3.27;2.97;;;28.70;61.20;;;;;;5031783;28;20199;-72
2023/08/26 12:43:57;;;;;;;2.40;2.20;;;28.70;61.20;;;;;;5033168;28;20172;-72
2023/08/26 12:46:23;;;;;;;2.90;2.60;;;28.70;61.20;;;;;;5032861;28;20183;-72
2023/08/26 12:48:49;;;;;;;2.67;2.47;;;28.70;61.20;;;;;;5032708;28;20170;-72